Time;durP1;ratioP1;P1;durP2;ratioP2;P2;SDS_P1;SDS_P2;PMS_P1;PMS_P2;Temp;Humidity;BMP_temperature;BMP_pressure;BME280_temperature;BME280_humidity;BME280_pressure;Samples;Min_cycle;Max_cycle;Signal;HPM_P1;HPM_P2
2023/08/21 00:02:27;;;;;;;16.55;12.18;;;20.40;99.90;;;;;;7602928;19;20025;-79
2023/08/21 00:05:00;;;;;;;14.55;12.23;;;20.40;99.90;;;;;;7600085;19;20025;-78
2023/08/21 00:07:32;;;;;;;17.88;12.20;;;20.30;99.90;;;;;;7611512;19;20825;-79
2023/08/21 00:10:05;;;;;;;16.52;12.43;;;20.30;99.90;;;;;;7615296;19;20043;-77
2023/08/21 00:12:37;;;;;;;16.48;12.07;;;20.30;99.90;;;;;;7606181;19;20792;-78
2023/08/21 00:15:10;;;;;;;13.65;11.45;;;20.20;99.90;;;;;;7615642;19;20046;-79
2023/08/21 00:17:42;;;;;;;17.40;12.85;;;20.20;99.90;;;;;;7609967;19;20582;-78
2023/08/21 00:20:15;;;;;;;16.60;12.05;;;20.50;99.90;;;;;;7615902;19;20010;-77
2023/08/21 00:22:47;;;;;;;15.55;12.05;;;20.50;99.90;;;;;;7611651;19;20674;-78
2023/08/21 00:25:21;;;;;;;16.60;12.43;;;20.60;99.90;;;;;;7614563;19;20041;-81
2023/08/21 00:27:54;;;;;;;15.52;12.50;;;20.60;99.90;;;;;;7606221;19;20022;-78
2023/08/21 00:30:26;;;;;;;18.25;11.93;;;20.60;99.90;;;;;;7612368;19;20029;-78
2023/08/21 00:32:58;;;;;;;14.35;11.63;;;20.60;99.90;;;;;;7615915;19;20382;-79
2023/08/21 00:35:31;;;;;;;13.80;11.52;;;20.50;99.90;;;;;;7610895;19;20029;-77
2023/08/21 00:38:03;;;;;;;16.70;11.75;;;20.50;99.90;;;;;;7614409;19;20011;-78
2023/08/21 00:40:35;;;;;;;16.73;11.30;;;20.40;99.90;;;;;;7611373;19;20532;-80
2023/08/21 00:43:08;;;;;;;16.10;12.05;;;20.30;99.90;;;;;;7612199;19;20014;-78
2023/08/21 00:45:42;;;;;;;15.25;12.30;;;20.20;99.90;;;;;;7606459;19;20823;-79
2023/08/21 00:48:15;;;;;;;15.98;12.15;;;20.10;99.90;;;;;;7606634;19;20132;-78
2023/08/21 00:50:48;;;;;;;16.25;12.88;;;20.00;99.90;;;;;;7613243;19;20026;-80
2023/08/21 00:53:21;;;;;;;;;;;20.10;99.90;;;;;;7616555;19;20036;-80
2023/08/21 00:55:53;;;;;;;16.60;12.30;;;20.20;99.90;;;;;;7614506;19;20483;-78
2023/08/21 00:58:26;;;;;;;17.42;12.77;;;20.30;99.90;;;;;;7599849;19;20555;-77
2023/08/21 01:00:58;;;;;;;19.33;13.02;;;20.30;99.90;;;;;;7615728;19;20097;-77
2023/08/21 01:03:31;;;;;;;15.35;12.40;;;20.00;99.90;;;;;;7608108;19;20119;-78
2023/08/21 01:06:03;;;;;;;13.48;11.68;;;19.90;99.90;;;;;;7609711;19;20023;-77
2023/08/21 01:08:52;;;;;;;13.90;12.40;;;19.80;99.90;;;;;;7612384;19;20026;-78
2023/08/21 01:11:50;;;;;;;16.63;11.80;;;19.90;99.90;;;;;;7609544;19;20785;-78
2023/08/21 01:14:35;;;;;;;15.80;11.85;;;19.90;99.90;;;;;;7609352;19;20022;-80
2023/08/21 01:17:12;;;;;;;14.15;12.07;;;19.90;99.90;;;;;;7611140;19;20019;-79
2023/08/21 01:19:49;;;;;;;13.13;11.20;;;19.90;99.90;;;;;;7611169;19;20342;-78
2023/08/21 01:22:38;;;;;;;16.50;11.50;;;19.90;99.90;;;;;;7613061;19;20017;-78
2023/08/21 01:25:12;;;;;;;17.52;11.63;;;19.90;99.90;;;;;;7608968;19;20046;-77
2023/08/21 01:27:49;;;;;;;16.60;11.75;;;19.90;99.90;;;;;;7609784;19;20540;-78
2023/08/21 01:30:22;;;;;;;15.73;11.18;;;19.90;99.90;;;;;;7612480;19;20396;-78
2023/08/21 01:32:58;;;;;;;;;;;19.90;99.90;;;;;;7613068;19;20029;-81
2023/08/21 01:35:31;;;;;;;13.90;11.15;;;19.90;99.90;;;;;;7609894;19;19918;-77
2023/08/21 01:38:04;;;;;;;19.97;11.93;;;19.80;99.90;;;;;;7611873;19;20923;-77
2023/08/21 01:40:36;;;;;;;14.68;11.85;;;19.70;99.90;;;;;;7610320;19;20279;-77
2023/08/21 01:43:09;;;;;;;15.85;11.77;;;19.70;99.90;;;;;;7607512;19;20014;-77
2023/08/21 01:45:42;;;;;;;14.45;11.23;;;19.70;99.90;;;;;;7609715;19;20034;-77
2023/08/21 01:48:15;;;;;;;13.35;10.20;;;19.70;99.90;;;;;;7607240;19;20030;-80
2023/08/21 01:50:47;;;;;;;16.75;11.32;;;19.60;99.90;;;;;;7608916;19;20496;-78
2023/08/21 01:53:20;;;;;;;12.93;10.30;;;19.60;99.90;;;;;;7609622;19;20042;-78
2023/08/21 01:55:52;;;;;;;14.03;12.33;;;19.60;99.90;;;;;;7608424;19;20018;-79
2023/08/21 01:58:25;;;;;;;16.30;12.25;;;19.50;99.90;;;;;;7608766;19;20014;-77
2023/08/21 02:00:57;;;;;;;14.70;11.95;;;19.40;99.90;;;;;;7609004;19;20019;-79
2023/08/21 02:03:30;;;;;;;14.63;11.38;;;19.40;99.90;;;;;;7609033;19;20022;-78
2023/08/21 02:06:03;;;;;;;14.52;11.68;;;19.30;99.90;;;;;;7609558;19;20019;-78
2023/08/21 02:08:38;;;;;;;18.30;11.27;;;19.40;99.90;;;;;;7612556;19;20026;-79
2023/08/21 02:11:10;;;;;;;14.73;11.68;;;19.40;99.90;;;;;;7613705;19;20025;-77
2023/08/21 02:13:42;;;;;;;15.27;11.45;;;19.40;99.90;;;;;;7611410;19;20094;-76
2023/08/21 02:16:14;;;;;;;13.43;11.38;;;19.30;99.90;;;;;;7605942;19;20021;-79
2023/08/21 02:18:46;;;;;;;16.65;11.38;;;19.20;99.90;;;;;;7602839;19;22367;-77
2023/08/21 02:21:18;;;;;;;14.25;11.52;;;19.20;99.90;;;;;;7608671;19;20044;-79
2023/08/21 02:23:51;;;;;;;12.73;10.80;;;19.20;99.90;;;;;;7605607;19;20042;-77
2023/08/21 02:26:23;;;;;;;15.57;11.05;;;19.20;99.90;;;;;;7607966;19;20038;-77
2023/08/21 02:28:55;;;;;;;18.05;12.13;;;19.20;99.90;;;;;;7608107;19;20391;-77
2023/08/21 02:31:27;;;;;;;16.98;11.43;;;19.20;99.90;;;;;;7609728;19;20014;-78
2023/08/21 02:34:00;;;;;;;15.55;11.82;;;19.10;99.90;;;;;;7611022;19;20781;-78
2023/08/21 02:36:32;;;;;;;18.45;11.30;;;19.10;99.90;;;;;;7606362;19;20479;-80
2023/08/21 02:39:05;;;;;;;17.70;10.90;;;19.10;99.90;;;;;;7613743;19;20949;-78
2023/08/21 02:41:37;;;;;;;14.03;11.13;;;19.00;99.90;;;;;;7602083;19;20033;-79
2023/08/21 02:44:09;;;;;;;17.85;11.43;;;19.00;99.90;;;;;;7612567;19;20283;-77
2023/08/21 02:46:42;;;;;;;12.80;10.20;;;19.00;99.90;;;;;;7601586;19;20026;-77
2023/08/21 02:49:14;;;;;;;18.15;10.90;;;19.00;99.90;;;;;;7609787;19;20025;-79
2023/08/21 02:51:46;;;;;;;14.82;10.88;;;19.10;99.90;;;;;;7606525;19;20033;-78
2023/08/21 02:54:19;;;;;;;15.77;11.20;;;19.00;99.90;;;;;;7609931;19;20074;-79
2023/08/21 02:56:51;;;;;;;13.43;10.73;;;19.00;99.90;;;;;;7606828;19;20025;-79
2023/08/21 02:59:23;;;;;;;15.88;11.43;;;18.90;99.90;;;;;;7608511;19;20034;-78
2023/08/21 03:01:56;;;;;;;15.95;11.07;;;18.90;99.90;;;;;;7608267;19;20011;-76
2023/08/21 03:04:28;;;;;;;14.40;11.60;;;18.90;99.90;;;;;;7605900;19;20574;-77
2023/08/21 03:07:00;;;;;;;16.40;11.68;;;18.90;99.90;;;;;;7610886;19;20029;-77
2023/08/21 03:09:33;;;;;;;16.83;10.93;;;18.80;99.90;;;;;;7604248;19;20022;-79
2023/08/21 03:12:06;;;;;;;19.63;12.23;;;18.80;99.90;;;;;;7611804;19;20037;-78
2023/08/21 03:14:39;;;;;;;17.15;11.70;;;18.70;99.90;;;;;;7606560;19;20014;-79
2023/08/21 03:17:11;;;;;;;18.50;11.75;;;18.60;99.90;;;;;;7609997;19;20064;-77
2023/08/21 03:19:43;;;;;;;15.05;12.00;;;18.50;99.90;;;;;;7602072;19;20019;-78
2023/08/21 03:22:16;;;;;;;17.35;11.65;;;18.60;99.90;;;;;;7611847;19;20031;-78
2023/08/21 03:24:49;;;;;;;14.80;11.80;;;18.50;99.90;;;;;;7605952;19;20018;-77
2023/08/21 03:27:22;;;;;;;18.17;11.02;;;18.50;99.90;;;;;;7609570;19;20029;-77
2023/08/21 03:29:55;;;;;;;14.25;11.45;;;18.50;99.90;;;;;;7607961;19;20018;-78
2023/08/21 03:32:27;;;;;;;16.42;11.48;;;18.50;99.90;;;;;;7605729;19;20046;-79
2023/08/21 03:35:00;;;;;;;17.15;11.13;;;18.60;99.90;;;;;;7608752;19;20041;-78
2023/08/21 03:37:32;;;;;;;15.98;10.85;;;18.60;99.90;;;;;;7608372;19;20015;-80
2023/08/21 03:40:05;;;;;;;17.13;11.27;;;18.50;99.90;;;;;;7609363;19;20029;-78
2023/08/21 03:42:38;;;;;;;16.88;11.48;;;18.50;99.90;;;;;;7605437;19;20506;-77
2023/08/21 03:45:11;;;;;;;12.90;10.63;;;18.50;99.90;;;;;;7610527;19;20014;-78
2023/08/21 03:47:43;;;;;;;16.52;11.90;;;18.40;99.90;;;;;;7599697;19;20021;-79
2023/08/21 03:50:21;;;;;;;16.80;10.68;;;18.30;99.90;;;;;;7609892;19;20056;-76
2023/08/21 03:52:54;;;;;;;15.57;10.85;;;18.30;99.90;;;;;;7605013;19;20010;-78
2023/08/21 03:55:27;;;;;;;25.98;12.02;;;18.30;99.90;;;;;;7606878;19;20039;-78
2023/08/21 03:58:00;;;;;;;17.58;11.50;;;18.20;99.90;;;;;;7593353;19;21358;-77
2023/08/21 04:00:32;;;;;;;19.83;11.55;;;18.30;99.90;;;;;;7608927;19;20027;-78
2023/08/21 04:03:05;;;;;;;20.10;10.95;;;18.20;99.90;;;;;;7602293;19;20022;-77
2023/08/21 04:05:37;;;;;;;16.85;11.73;;;18.20;99.90;;;;;;7604789;19;20019;-78
2023/08/21 04:08:09;;;;;;;16.98;12.15;;;18.10;99.90;;;;;;7609354;19;20046;-78
2023/08/21 04:10:42;;;;;;;16.55;11.80;;;18.00;99.90;;;;;;7603194;19;20022;-78
2023/08/21 04:13:15;;;;;;;14.40;11.55;;;18.00;99.90;;;;;;7608380;19;20119;-78
2023/08/21 04:15:49;;;;;;;14.13;11.48;;;17.90;99.90;;;;;;7601644;19;20060;-78
2023/08/21 04:18:21;;;;;;;16.10;11.15;;;17.90;99.90;;;;;;7610227;19;20062;-78
2023/08/21 04:21:11;;;;;;;15.25;10.95;;;17.90;99.90;;;;;;7611310;19;20017;-77
2023/08/21 04:23:45;;;;;;;18.33;11.20;;;17.90;99.90;;;;;;7602944;19;20050;-78
2023/08/21 04:26:17;;;;;;;17.80;11.02;;;17.90;99.90;;;;;;7601434;19;20082;-78
2023/08/21 04:28:49;;;;;;;14.18;11.80;;;17.90;99.90;;;;;;7603725;19;20015;-78
2023/08/21 04:31:22;;;;;;;13.20;11.02;;;18.00;99.90;;;;;;7605271;19;20018;-77
2023/08/21 04:33:54;;;;;;;16.67;11.45;;;17.90;99.90;;;;;;7600094;19;20041;-80
2023/08/21 04:36:27;;;;;;;13.52;10.85;;;17.90;99.90;;;;;;7607687;19;20015;-77
2023/08/21 04:38:59;;;;;;;15.13;11.52;;;18.00;99.90;;;;;;7606304;19;20050;-78
2023/08/21 04:41:31;;;;;;;12.65;10.48;;;18.00;99.90;;;;;;7606880;19;20024;-77
2023/08/21 04:44:04;;;;;;;16.30;11.43;;;18.10;99.90;;;;;;7602104;19;20068;-77
2023/08/21 04:46:36;;;;;;;22.20;10.90;;;18.00;99.90;;;;;;7604851;19;20316;-78
2023/08/21 04:49:09;;;;;;;18.90;12.52;;;18.10;99.90;;;;;;7616030;19;20014;-77
2023/08/21 04:51:42;;;;;;;13.25;11.35;;;18.10;99.90;;;;;;7613177;19;20065;-79
2023/08/21 04:54:15;;;;;;;17.23;12.13;;;18.30;99.90;;;;;;7611144;19;20020;-80
2023/08/21 04:56:48;;;;;;;14.60;10.38;;;18.40;99.90;;;;;;7607831;19;20017;-77
2023/08/21 04:59:21;;;;;;;14.60;10.73;;;18.50;99.90;;;;;;7611018;19;21074;-78
2023/08/21 05:01:54;;;;;;;14.40;11.52;;;18.60;99.90;;;;;;7606385;19;20018;-78
2023/08/21 05:04:26;;;;;;;14.27;11.95;;;18.70;99.90;;;;;;7614974;19;20018;-78
2023/08/21 05:07:00;;;;;;;17.77;11.07;;;18.60;99.90;;;;;;7607751;19;20014;-78
2023/08/21 05:09:32;;;;;;;15.52;11.23;;;18.70;99.90;;;;;;7614979;19;20195;-78
2023/08/21 05:12:07;;;;;;;16.77;11.50;;;18.60;99.90;;;;;;7605153;19;20017;-80
2023/08/21 05:14:39;;;;;;;20.67;11.23;;;18.60;99.90;;;;;;7611376;19;20531;-80
2023/08/21 05:17:11;;;;;;;16.95;11.10;;;18.60;99.90;;;;;;7615550;19;21074;-77
2023/08/21 05:19:44;;;;;;;18.95;11.32;;;18.60;99.90;;;;;;7613101;19;20022;-77
2023/08/21 05:22:16;;;;;;;14.43;10.67;;;18.70;99.90;;;;;;7613299;19;20022;-77
2023/08/21 05:24:49;;;;;;;14.57;10.93;;;18.90;99.90;;;;;;7611108;19;20489;-78
2023/08/21 05:27:22;;;;;;;18.45;11.55;;;19.00;99.90;;;;;;7601510;19;20519;-78
2023/08/21 05:29:54;;;;;;;15.13;11.18;;;19.00;99.90;;;;;;7618703;19;20011;-77
2023/08/21 05:32:26;;;;;;;19.02;10.65;;;19.00;99.90;;;;;;7608114;19;20809;-77
2023/08/21 05:34:59;;;;;;;15.00;11.68;;;19.10;99.90;;;;;;7610553;19;20022;-78
2023/08/21 05:37:36;;;;;;;17.15;11.32;;;19.20;99.90;;;;;;7613607;19;20102;-78
2023/08/21 05:40:09;;;;;;;18.80;10.98;;;19.40;99.90;;;;;;7599654;19;20014;-77
2023/08/21 05:42:42;;;;;;;16.17;10.90;;;19.50;99.90;;;;;;7612228;19;20018;-79
2023/08/21 05:45:14;;;;;;;16.48;10.55;;;19.70;99.90;;;;;;7609834;19;20019;-78
2023/08/21 05:47:46;;;;;;;16.90;11.27;;;19.70;99.90;;;;;;7610486;19;20011;-80
2023/08/21 05:50:18;;;;;;;15.20;10.82;;;19.80;99.90;;;;;;7610736;19;20044;-78
2023/08/21 05:52:51;;;;;;;16.10;10.55;;;20.00;99.90;;;;;;7612660;19;20017;-79
2023/08/21 05:55:23;;;;;;;16.25;10.52;;;20.00;99.90;;;;;;7612933;19;20015;-77
2023/08/21 05:57:56;;;;;;;14.73;10.05;;;20.20;99.90;;;;;;7614041;19;20014;-81
2023/08/21 06:00:28;;;;;;;16.43;9.77;;;20.30;99.90;;;;;;7617341;19;20026;-78
2023/08/21 06:03:05;;;;;;;15.18;10.35;;;20.30;99.90;;;;;;7613355;19;20291;-78
2023/08/21 06:06:13;;;;;;;15.15;10.18;;;20.50;99.90;;;;;;7609787;19;20068;-79
2023/08/21 06:08:45;;;;;;;14.45;10.50;;;20.60;99.90;;;;;;7614147;19;20424;-79
2023/08/21 06:11:18;;;;;;;14.40;10.03;;;20.80;99.90;;;;;;7607867;19;20018;-78
2023/08/21 06:13:50;;;;;;;19.92;9.05;;;20.90;99.90;;;;;;7615421;19;20282;-78
2023/08/21 06:16:23;;;;;;;15.00;9.43;;;21.10;99.90;;;;;;7608506;19;20021;-79
2023/08/21 06:18:55;;;;;;;15.02;9.68;;;21.20;99.90;;;;;;7613217;19;20074;-78
2023/08/21 06:21:27;;;;;;;10.65;8.75;;;21.40;99.90;;;;;;7614118;19;20033;-79
2023/08/21 06:24:00;;;;;;;14.95;8.48;;;21.50;99.90;;;;;;7614424;19;20619;-78
2023/08/21 06:26:32;;;;;;;14.67;8.63;;;21.70;99.90;;;;;;7606913;19;20899;-78
2023/08/21 06:29:04;;;;;;;14.02;9.02;;;21.80;99.90;;;;;;7612345;19;20310;-77
2023/08/21 06:31:37;;;;;;;14.37;8.67;;;22.00;99.90;;;;;;7612146;19;20018;-78
2023/08/21 06:34:09;;;;;;;11.70;8.45;;;22.10;99.90;;;;;;7610673;19;20299;-76
2023/08/21 06:36:41;;;;;;;11.57;8.45;;;22.30;99.90;;;;;;7611328;19;20029;-77
2023/08/21 06:39:14;;;;;;;12.88;7.93;;;22.50;99.90;;;;;;7611037;19;21068;-81
2023/08/21 06:41:46;;;;;;;16.08;8.15;;;22.60;99.90;;;;;;7614194;19;20448;-81
2023/08/21 06:44:23;;;;;;;11.88;8.18;;;22.70;99.90;;;;;;7617542;19;20563;-77
2023/08/21 06:46:55;;;;;;;14.18;8.25;;;22.80;99.90;;;;;;7609383;19;20029;-77
2023/08/21 06:49:27;;;;;;;12.77;7.80;;;23.00;99.90;;;;;;7612135;19;20033;-79
2023/08/21 06:52:00;;;;;;;13.57;9.05;;;23.10;99.90;;;;;;7612736;19;20010;-80
2023/08/21 06:54:32;;;;;;;9.85;8.30;;;23.20;99.90;;;;;;7611927;19;20010;-78
2023/08/21 06:57:04;;;;;;;13.68;8.70;;;23.20;99.90;;;;;;7611462;19;20055;-79
2023/08/21 06:59:38;;;;;;;16.67;8.63;;;23.30;99.90;;;;;;7612392;19;21173;-79
2023/08/21 07:02:12;;;;;;;16.60;8.18;;;23.50;99.90;;;;;;7612355;19;20018;-78
2023/08/21 07:04:47;;;;;;;12.02;8.82;;;23.60;99.90;;;;;;7612894;19;20022;-80
2023/08/21 07:07:19;;;;;;;11.57;9.43;;;23.70;99.90;;;;;;7609352;19;20018;-78
2023/08/21 07:09:51;;;;;;;13.27;9.15;;;23.80;99.90;;;;;;7607932;19;20018;-78
2023/08/21 07:12:24;;;;;;;19.63;9.20;;;23.90;99.90;;;;;;7611068;19;20056;-79
2023/08/21 07:14:56;;;;;;;12.35;8.68;;;24.10;99.90;;;;;;7612187;19;20813;-77
2023/08/21 07:17:28;;;;;;;15.95;8.88;;;24.20;99.90;;;;;;7609652;19;20026;-79
2023/08/21 07:20:01;;;;;;;13.68;9.48;;;24.40;99.90;;;;;;7613796;19;20037;-76
2023/08/21 07:22:33;;;;;;;12.07;9.10;;;24.50;99.90;;;;;;7618202;19;20022;-78
2023/08/21 07:25:06;;;;;;;13.70;8.57;;;24.60;99.90;;;;;;7609112;19;20021;-80
2023/08/21 07:27:39;;;;;;;12.93;9.07;;;24.70;99.90;;;;;;7610571;19;21069;-79
2023/08/21 07:30:11;;;;;;;13.18;8.88;;;24.80;99.90;;;;;;7611608;19;20763;-79
2023/08/21 07:32:43;;;;;;;9.55;8.50;;;25.00;99.90;;;;;;7601615;19;20006;-79
2023/08/21 07:35:16;;;;;;;17.65;9.20;;;25.10;99.90;;;;;;7609156;19;20030;-79
2023/08/21 07:37:48;;;;;;;12.40;8.98;;;25.20;99.90;;;;;;7612251;19;20607;-78
2023/08/21 07:40:21;;;;;;;11.52;8.07;;;25.30;99.90;;;;;;7612178;19;20106;-77
2023/08/21 07:42:53;;;;;;;14.60;8.55;;;25.40;99.90;;;;;;7602264;19;20026;-80
2023/08/21 07:45:25;;;;;;;13.82;8.13;;;25.50;99.90;;;;;;7610948;19;20597;-79
2023/08/21 07:47:58;;;;;;;13.73;8.00;;;25.70;99.90;;;;;;7605859;19;20030;-78
2023/08/21 07:50:52;;;;;;;12.55;7.72;;;25.70;99.90;;;;;;7611283;19;20991;-77
2023/08/21 07:53:26;;;;;;;14.30;7.95;;;25.90;99.90;;;;;;7612236;19;20015;-79
2023/08/21 07:55:58;;;;;;;12.73;7.97;;;26.00;99.90;;;;;;7611505;19;20015;-78
2023/08/21 07:58:31;;;;;;;11.90;8.27;;;26.20;99.90;;;;;;7611482;19;20018;-78
2023/08/21 08:01:04;;;;;;;9.73;7.72;;;26.30;99.90;;;;;;7611189;19;21594;-78
2023/08/21 08:03:37;;;;;;;15.43;8.55;;;26.50;99.60;;;;;;7611314;19;20024;-79
2023/08/21 08:06:10;;;;;;;12.82;8.60;;;26.60;99.20;;;;;;7609555;19;20025;-80
2023/08/21 08:08:42;;;;;;;15.07;8.15;;;26.70;99.00;;;;;;7609088;19;20048;-79
2023/08/21 08:11:14;;;;;;;15.47;7.93;;;26.70;99.00;;;;;;7612364;19;20018;-80
2023/08/21 08:13:47;;;;;;;15.35;8.32;;;26.80;98.80;;;;;;7614414;19;20015;-78
2023/08/21 08:16:19;;;;;;;11.10;7.53;;;26.90;98.60;;;;;;7609743;19;20018;-80
2023/08/21 08:18:51;;;;;;;9.57;7.63;;;27.00;98.60;;;;;;7612504;19;20014;-78
2023/08/21 08:21:24;;;;;;;13.75;8.20;;;27.00;98.40;;;;;;7615827;19;20019;-77
2023/08/21 08:23:57;;;;;;;11.20;7.95;;;27.10;97.80;;;;;;7617348;19;20019;-78
2023/08/21 08:26:29;;;;;;;13.50;8.85;;;27.20;98.20;;;;;;7618753;19;20020;-79
2023/08/21 08:29:01;;;;;;;12.50;8.70;;;27.40;98.10;;;;;;7619936;19;20368;-76
2023/08/21 08:31:34;;;;;;;15.45;8.30;;;27.50;97.70;;;;;;7623212;19;20300;-80
2023/08/21 08:34:06;;;;;;;11.10;8.60;;;27.60;97.70;;;;;;7624332;19;20992;-76
2023/08/21 08:36:41;;;;;;;9.50;8.47;;;27.50;96.50;;;;;;7619797;19;20010;-80
2023/08/21 08:39:13;;;;;;;10.65;7.60;;;27.60;97.00;;;;;;7621518;19;20041;-79
2023/08/21 08:42:02;;;;;;;12.40;8.33;;;27.60;96.00;;;;;;7618489;19;20018;-77
2023/08/21 08:44:36;;;;;;;13.00;8.35;;;27.70;95.60;;;;;;7623152;19;20812;-77
2023/08/21 08:47:11;;;;;;;9.55;8.05;;;27.70;94.90;;;;;;7618154;19;20023;-79
2023/08/21 08:49:43;;;;;;;12.15;8.23;;;27.70;95.20;;;;;;7615013;19;20379;-80
2023/08/21 08:52:17;;;;;;;10.80;7.93;;;27.80;95.30;;;;;;7620848;19;20021;-78
2023/08/21 08:54:49;;;;;;;10.65;8.10;;;27.90;95.20;;;;;;7618256;19;20022;-79
2023/08/21 08:57:21;;;;;;;12.95;8.32;;;28.00;94.80;;;;;;7618906;19;20038;-77
2023/08/21 08:59:54;;;;;;;12.35;8.65;;;28.10;94.90;;;;;;7619153;19;20015;-76
2023/08/21 09:02:26;;;;;;;9.35;8.05;;;28.10;94.10;;;;;;7628013;19;20018;-77
2023/08/21 09:04:58;;;;;;;14.50;7.70;;;28.20;94.10;;;;;;7607655;19;20516;-78
2023/08/21 09:07:31;;;;;;;15.33;8.13;;;28.20;93.60;;;;;;7615914;19;20022;-79
2023/08/21 09:10:03;;;;;;;11.73;7.97;;;28.20;93.70;;;;;;7612310;19;20802;-80
2023/08/21 09:12:38;;;;;;;11.95;7.85;;;28.30;93.20;;;;;;7618255;19;20078;-79
2023/08/21 09:15:13;;;;;;;11.40;7.88;;;28.50;93.80;;;;;;7611298;19;20381;-78
2023/08/21 09:17:53;;;;;;;8.90;7.57;;;28.40;93.10;;;;;;7614229;19;20723;-78
2023/08/21 09:20:25;;;;;;;9.63;7.70;;;28.40;92.40;;;;;;7618203;19;20019;-77
2023/08/21 09:22:58;;;;;;;9.63;8.40;;;28.40;92.50;;;;;;7612016;19;20022;-80
2023/08/21 09:25:35;;;;;;;12.10;7.88;;;28.40;92.20;;;;;;7616107;19;20060;-79
2023/08/21 09:28:09;;;;;;;9.52;8.25;;;28.50;92.80;;;;;;7599161;19;20021;-78
2023/08/21 09:30:48;;;;;;;9.45;7.88;;;28.60;92.00;;;;;;7614669;19;21123;-78
2023/08/21 09:33:22;;;;;;;10.68;8.25;;;28.60;91.90;;;;;;7610279;19;20018;-78
2023/08/21 09:35:55;;;;;;;8.75;7.57;;;28.60;91.70;;;;;;7612844;19;20018;-77
2023/08/21 09:38:28;;;;;;;11.00;7.85;;;28.60;90.80;;;;;;7612866;19;20038;-77
2023/08/21 09:41:00;;;;;;;8.88;7.43;;;28.70;91.20;;;;;;7608584;19;20029;-78
2023/08/21 09:43:41;;;;;;;8.45;7.53;;;28.90;90.20;;;;;;7617217;19;20018;-78
2023/08/21 09:46:24;;;;;;;13.65;8.23;;;28.90;88.40;;;;;;7606631;19;20014;-77
2023/08/21 09:49:00;;;;;;;12.73;7.43;;;28.90;87.90;;;;;;7611287;19;20015;-80
2023/08/21 09:51:32;;;;;;;;;;;29.00;89.50;;;;;;7615677;19;20023;-78
2023/08/21 09:54:06;;;;;;;10.65;7.90;;;29.10;88.70;;;;;;7610436;19;19910;-79
2023/08/21 09:56:38;;;;;;;9.10;7.63;;;29.20;87.10;;;;;;7614480;19;20539;-78
2023/08/21 09:59:11;;;;;;;10.38;6.93;;;29.20;85.70;;;;;;7609458;19;20063;-79
2023/08/21 10:01:46;;;;;;;14.43;6.60;;;29.30;84.60;;;;;;7612176;19;20433;-78
2023/08/21 10:04:19;;;;;;;10.85;6.85;;;29.40;80.20;;;;;;7612077;19;21052;-77
2023/08/21 10:06:55;;;;;;;8.13;7.25;;;29.40;81.00;;;;;;7609123;19;20024;-77
2023/08/21 10:09:29;;;;;;;8.75;7.53;;;29.50;81.80;;;;;;7609787;19;20030;-77
2023/08/21 10:12:02;;;;;;;9.73;7.75;;;29.50;81.50;;;;;;7611548;19;20022;-80
2023/08/21 10:14:36;;;;;;;12.45;7.05;;;29.60;82.00;;;;;;7610055;19;20067;-78
2023/08/21 10:17:08;;;;;;;9.68;7.43;;;29.70;82.70;;;;;;7608966;19;20018;-77
2023/08/21 10:19:41;;;;;;;11.98;7.63;;;29.80;81.20;;;;;;7611473;19;20026;-79
2023/08/21 10:22:13;;;;;;;12.40;7.03;;;29.80;81.10;;;;;;7605201;19;20055;-78
2023/08/21 10:24:46;;;;;;;9.48;7.85;;;29.90;79.70;;;;;;7608389;19;20025;-78
2023/08/21 10:27:30;;;;;;;13.85;8.35;;;30.00;78.40;;;;;;7606973;19;20018;-78
2023/08/21 10:30:15;;;;;;;12.13;7.32;;;30.10;78.10;;;;;;7610298;19;20018;-77
2023/08/21 10:36:44;;;;;;;8.40;6.75;;;30.20;76.90;;;;;;7580353;19;20011;-78
2023/08/21 10:39:22;;;;;;;11.20;7.38;;;30.30;75.50;;;;;;7578411;19;20101;-79
2023/08/21 10:42:02;;;;;;;9.00;7.03;;;30.40;75.50;;;;;;7597043;19;20018;-76
2023/08/21 10:44:59;;;;;;;11.70;7.65;;;30.40;74.80;;;;;;7588671;19;20034;-77
2023/08/21 10:47:34;;;;;;;10.48;7.90;;;30.50;74.50;;;;;;7581518;19;20038;-77
2023/08/21 10:50:08;;;;;;;10.13;7.38;;;30.60;74.80;;;;;;7587188;19;20011;-77
2023/08/21 10:52:44;;;;;;;9.73;7.85;;;30.70;73.40;;;;;;7603944;19;20062;-77
2023/08/21 10:55:20;;;;;;;10.55;7.20;;;30.90;76.00;;;;;;7591541;19;20664;-78
2023/08/21 10:57:52;;;;;;;8.60;7.75;;;30.90;73.60;;;;;;7591874;19;20055;-76
2023/08/21 11:00:24;;;;;;;9.80;7.38;;;31.00;74.70;;;;;;7588042;19;20014;-78
2023/08/21 11:02:56;;;;;;;10.17;7.13;;;31.10;73.40;;;;;;7591377;19;20014;-77
2023/08/21 11:05:29;;;;;;;10.93;8.20;;;31.20;72.30;;;;;;7591358;19;20286;-77
2023/08/21 11:08:01;;;;;;;10.25;7.05;;;31.20;71.00;;;;;;7607567;19;20022;-78
2023/08/21 11:10:34;;;;;;;10.77;7.77;;;31.40;71.30;;;;;;7574609;19;20018;-77
2023/08/21 11:13:07;;;;;;;10.15;7.88;;;31.60;70.60;;;;;;7589952;19;20041;-78
2023/08/21 11:15:40;;;;;;;9.68;7.65;;;31.90;70.70;;;;;;7591416;19;20082;-77
2023/08/21 11:18:12;;;;;;;9.43;7.50;;;32.10;72.50;;;;;;7591698;19;20024;-78
2023/08/21 11:20:45;;;;;;;11.95;7.15;;;32.40;71.00;;;;;;7590580;19;20529;-76
2023/08/21 11:23:17;;;;;;;9.02;7.20;;;32.70;68.30;;;;;;7596426;19;20018;-77
2023/08/21 11:25:52;;;;;;;11.55;7.53;;;33.10;67.80;;;;;;7591730;19;20026;-77
2023/08/21 11:28:31;;;;;;;7.97;7.18;;;33.50;66.10;;;;;;7594696;19;20051;-77
2023/08/21 11:31:05;;;;;;;13.48;7.43;;;33.60;65.90;;;;;;7595968;19;21104;-78
2023/08/21 11:33:39;;;;;;;18.05;7.03;;;33.90;67.20;;;;;;7587416;19;20018;-77
2023/08/21 11:36:11;;;;;;;9.85;6.93;;;34.20;66.90;;;;;;7601472;19;20019;-78
2023/08/21 11:38:59;;;;;;;10.30;7.32;;;34.10;63.80;;;;;;7595428;19;20022;-78
2023/08/21 11:41:31;;;;;;;8.30;6.95;;;34.30;64.50;;;;;;7593639;19;20816;-78
2023/08/21 11:44:03;;;;;;;10.13;7.78;;;34.70;63.40;;;;;;7583332;19;20021;-77
2023/08/21 11:46:37;;;;;;;;;;;35.00;64.60;;;;;;7586357;19;20043;-79
2023/08/21 11:49:09;;;;;;;10.98;7.53;;;35.20;64.50;;;;;;7599439;19;19926;-77
2023/08/21 11:51:41;;;;;;;9.00;6.88;;;35.20;63.20;;;;;;7585706;19;20052;-79
2023/08/21 11:54:13;;;;;;;13.40;7.40;;;35.30;63.90;;;;;;7568748;19;20546;-79
2023/08/21 11:56:47;;;;;;;7.75;6.95;;;35.50;64.50;;;;;;7585352;19;20054;-78
2023/08/21 11:59:25;;;;;;;10.63;7.00;;;35.70;62.40;;;;;;7607136;19;20052;-78
2023/08/21 12:01:57;;;;;;;9.57;6.53;;;35.80;60.40;;;;;;7606476;19;20058;-77
2023/08/21 12:04:29;;;;;;;7.30;6.20;;;36.10;60.70;;;;;;7604891;19;20082;-78
2023/08/21 12:07:02;;;;;;;;;;;36.10;57.80;;;;;;7620434;19;20092;-77
2023/08/21 12:09:34;;;;;;;9.13;6.20;;;36.20;57.90;;;;;;7594090;19;20341;-78
2023/08/21 12:12:07;;;;;;;10.07;5.97;;;36.40;58.90;;;;;;7582506;19;20025;-79
2023/08/21 12:14:40;;;;;;;9.55;6.32;;;36.30;57.20;;;;;;7591996;19;20047;-79
2023/08/21 12:17:12;;;;;;;6.32;5.68;;;36.50;57.70;;;;;;7607267;19;20014;-77
2023/08/21 12:19:45;;;;;;;6.00;5.50;;;36.50;56.20;;;;;;7597173;19;20015;-78
2023/08/21 12:22:18;;;;;;;7.63;5.80;;;36.80;57.70;;;;;;7604179;19;20506;-78
2023/08/21 12:24:50;;;;;;;11.15;6.38;;;37.10;57.30;;;;;;7599400;19;20038;-78
2023/08/21 12:27:22;;;;;;;7.45;6.75;;;37.20;57.40;;;;;;7587896;19;20019;-78
2023/08/21 12:29:55;;;;;;;8.25;5.93;;;36.90;53.70;;;;;;7606767;19;20010;-78
2023/08/21 12:32:27;;;;;;;8.95;6.30;;;36.20;55.10;;;;;;7608966;19;20014;-79
2023/08/21 12:35:00;;;;;;;7.57;6.40;;;36.60;57.40;;;;;;7600402;19;20130;-78
2023/08/21 12:37:32;;;;;;;14.27;6.65;;;36.90;57.70;;;;;;7617145;19;20091;-77
2023/08/21 12:40:05;;;;;;;9.00;6.30;;;37.30;56.30;;;;;;7617492;19;20015;-76
2023/08/21 12:42:37;;;;;;;9.43;6.85;;;37.40;56.70;;;;;;7616510;19;20807;-78
2023/08/21 12:45:11;;;;;;;7.43;6.30;;;37.10;56.90;;;;;;7612620;19;20081;-78
2023/08/21 12:47:43;;;;;;;6.82;6.00;;;36.80;56.30;;;;;;7614776;19;20022;-79
2023/08/21 12:50:15;;;;;;;;;;;37.10;56.70;;;;;;7613307;19;20042;-79
2023/08/21 12:52:48;;;;;;;11.45;6.32;;;37.50;56.20;;;;;;7615576;19;19967;-79
2023/08/21 12:55:20;;;;;;;10.23;6.28;;;37.50;55.30;;;;;;7612484;19;20006;-79
2023/08/21 12:57:52;;;;;;;8.18;5.97;;;37.50;56.40;;;;;;7615216;19;20367;-79
2023/08/21 13:00:24;;;;;;;10.10;6.28;;;37.60;54.20;;;;;;7614229;19;20036;-78
2023/08/21 13:02:57;;;;;;;;;;;37.70;55.20;;;;;;7618325;19;20038;-79
2023/08/21 13:05:29;;;;;;;12.30;6.33;;;37.90;56.10;;;;;;7610921;19;19923;-77
2023/08/21 13:08:01;;;;;;;8.73;6.00;;;37.80;54.90;;;;;;7614663;19;20026;-79
2023/08/21 13:10:34;;;;;;;;;;;37.90;53.80;;;;;;7615410;19;20943;-77
2023/08/21 13:13:06;;;;;;;6.10;5.38;;;37.60;54.00;;;;;;7616586;19;19919;-78